sensor_id;sensor_type;location;lat;lon;timestamp;temperature;humidity
2190;DHT22;1101;51.056;7.262;2023-03-14T00:01:15;10.10;99.90
2190;DHT22;1101;51.056;7.262;2023-03-14T00:03:44;10.10;99.90
2190;DHT22;1101;51.056;7.262;2023-03-14T00:06:13;10.10;99.90
2190;DHT22;1101;51.056;7.262;2023-03-14T00:08:42;10.10;99.90
2190;DHT22;1101;51.056;7.262;2023-03-14T00:11:11;10.10;99.90
2190;DHT22;1101;51.056;7.262;2023-03-14T00:13:40;10.10;99.90
2190;DHT22;1101;51.056;7.262;2023-03-14T00:16:11;10.10;99.90
2190;DHT22;1101;51.056;7.262;2023-03-14T00:18:39;10.10;99.90
2190;DHT22;1101;51.056;7.262;2023-03-14T00:21:09;10.10;99.90
2190;DHT22;1101;51.056;7.262;2023-03-14T00:23:38;10.00;99.90
2190;DHT22;1101;51.056;7.262;2023-03-14T00:26:08;10.00;99.90
2190;DHT22;1101;51.056;7.262;2023-03-14T00:28:37;10.10;99.90
2190;DHT22;1101;51.056;7.262;2023-03-14T00:31:05;10.00;99.90
2190;DHT22;1101;51.056;7.262;2023-03-14T00:33:35;10.10;99.90
2190;DHT22;1101;51.056;7.262;2023-03-14T00:36:06;10.10;99.90
2190;DHT22;1101;51.056;7.262;2023-03-14T00:38:36;10.10;99.90
2190;DHT22;1101;51.056;7.262;2023-03-14T00:41:05;10.10;99.90
2190;DHT22;1101;51.056;7.262;2023-03-14T00:43:33;10.10;99.90
2190;DHT22;1101;51.056;7.262;2023-03-14T00:46:01;10.10;99.90
2190;DHT22;1101;51.056;7.262;2023-03-14T00:48:29;10.10;99.90
2190;DHT22;1101;51.056;7.262;2023-03-14T00:50:58;10.10;99.90
2190;DHT22;1101;51.056;7.262;2023-03-14T00:53:26;10.10;99.90
2190;DHT22;1101;51.056;7.262;2023-03-14T00:55:54;10.10;99.90
2190;DHT22;1101;51.056;7.262;2023-03-14T00:58:21;10.10;99.90
2190;DHT22;1101;51.056;7.262;2023-03-14T01:00:49;10.10;99.90
2190;DHT22;1101;51.056;7.262;2023-03-14T01:03:17;10.10;99.90
2190;DHT22;1101;51.056;7.262;2023-03-14T01:05:45;10.10;99.90
2190;DHT22;1101;51.056;7.262;2023-03-14T01:08:14;10.10;99.90
2190;DHT22;1101;51.056;7.262;2023-03-14T01:10:42;10.10;99.90
2190;DHT22;1101;51.056;7.262;2023-03-14T01:13:10;10.10;99.90
2190;DHT22;1101;51.056;7.262;2023-03-14T01:15:38;10.10;99.90
2190;DHT22;1101;51.056;7.262;2023-03-14T01:18:05;10.10;99.90
2190;DHT22;1101;51.056;7.262;2023-03-14T01:20:33;10.20;99.90
2190;DHT22;1101;51.056;7.262;2023-03-14T01:23:01;10.10;99.90
2190;DHT22;1101;51.056;7.262;2023-03-14T01:25:30;10.10;99.90
2190;DHT22;1101;51.056;7.262;2023-03-14T01:27:58;10.10;99.90
2190;DHT22;1101;51.056;7.262;2023-03-14T01:30:27;10.10;99.90
2190;DHT22;1101;51.056;7.262;2023-03-14T01:32:54;10.10;99.90
2190;DHT22;1101;51.056;7.262;2023-03-14T01:35:22;10.10;99.90
2190;DHT22;1101;51.056;7.262;2023-03-14T01:37:50;10.00;99.90
2190;DHT22;1101;51.056;7.262;2023-03-14T01:40:18;9.90;99.90
2190;DHT22;1101;51.056;7.262;2023-03-14T01:42:54;9.80;99.90
2190;DHT22;1101;51.056;7.262;2023-03-14T01:48:28;9.60;99.90
2190;DHT22;1101;51.056;7.262;2023-03-14T01:50:59;9.40;99.90
2190;DHT22;1101;51.056;7.262;2023-03-14T01:53:28;9.30;99.90
2190;DHT22;1101;51.056;7.262;2023-03-14T01:55:56;9.30;99.90
2190;DHT22;1101;51.056;7.262;2023-03-14T01:58:27;9.20;99.90
2190;DHT22;1101;51.056;7.262;2023-03-14T02:00:57;9.20;99.90
2190;DHT22;1101;51.056;7.262;2023-03-14T02:03:27;9.10;99.90
2190;DHT22;1101;51.056;7.262;2023-03-14T02:06:00;9.10;99.90
2190;DHT22;1101;51.056;7.262;2023-03-14T02:08:33;9.10;99.90
2190;DHT22;1101;51.056;7.262;2023-03-14T02:11:04;9.00;99.90
2190;DHT22;1101;51.056;7.262;2023-03-14T02:13:36;9.00;99.90
2190;DHT22;1101;51.056;7.262;2023-03-14T02:16:04;9.00;99.90
2190;DHT22;1101;51.056;7.262;2023-03-14T02:18:32;9.00;99.90
2190;DHT22;1101;51.056;7.262;2023-03-14T02:21:04;9.00;99.90
2190;DHT22;1101;51.056;7.262;2023-03-14T02:23:39;9.00;99.90
2190;DHT22;1101;51.056;7.262;2023-03-14T02:26:13;8.90;99.90
2190;DHT22;1101;51.056;7.262;2023-03-14T02:28:43;8.90;99.90
2190;DHT22;1101;51.056;7.262;2023-03-14T02:31:12;8.90;99.90
2190;DHT22;1101;51.056;7.262;2023-03-14T02:33:40;8.90;99.90
2190;DHT22;1101;51.056;7.262;2023-03-14T02:36:11;8.90;99.90
2190;DHT22;1101;51.056;7.262;2023-03-14T02:38:45;8.90;99.90
2190;DHT22;1101;51.056;7.262;2023-03-14T02:41:14;8.90;99.90
2190;DHT22;1101;51.056;7.262;2023-03-14T02:43:43;8.80;99.90
2190;DHT22;1101;51.056;7.262;2023-03-14T02:46:48;8.80;99.90
2190;DHT22;1101;51.056;7.262;2023-03-14T02:49:16;8.80;99.90
2190;DHT22;1101;51.056;7.262;2023-03-14T02:51:45;8.80;99.90
2190;DHT22;1101;51.056;7.262;2023-03-14T02:54:13;8.80;99.90
2190;DHT22;1101;51.056;7.262;2023-03-14T02:56:42;8.70;99.90
2190;DHT22;1101;51.056;7.262;2023-03-14T02:59:11;8.70;99.90
2190;DHT22;1101;51.056;7.262;2023-03-14T03:01:39;8.70;99.90
2190;DHT22;1101;51.056;7.262;2023-03-14T03:04:06;8.70;99.90
2190;DHT22;1101;51.056;7.262;2023-03-14T03:06:34;8.70;99.90
2190;DHT22;1101;51.056;7.262;2023-03-14T03:09:02;8.70;99.90
2190;DHT22;1101;51.056;7.262;2023-03-14T03:11:30;8.70;99.90
2190;DHT22;1101;51.056;7.262;2023-03-14T03:13:59;8.60;99.90
2190;DHT22;1101;51.056;7.262;2023-03-14T03:16:28;8.60;99.90
2190;DHT22;1101;51.056;7.262;2023-03-14T03:18:56;8.60;99.90
2190;DHT22;1101;51.056;7.262;2023-03-14T03:21:23;8.60;99.90
2190;DHT22;1101;51.056;7.262;2023-03-14T03:23:51;8.60;99.90
2190;DHT22;1101;51.056;7.262;2023-03-14T03:26:19;8.60;99.90
2190;DHT22;1101;51.056;7.262;2023-03-14T03:28:47;8.60;99.90
2190;DHT22;1101;51.056;7.262;2023-03-14T03:31:17;8.60;99.90
2190;DHT22;1101;51.056;7.262;2023-03-14T03:33:46;8.60;99.90
2190;DHT22;1101;51.056;7.262;2023-03-14T03:36:14;8.60;99.90
2190;DHT22;1101;51.056;7.262;2023-03-14T03:38:42;8.60;99.90
2190;DHT22;1101;51.056;7.262;2023-03-14T03:41:09;8.60;99.90
2190;DHT22;1101;51.056;7.262;2023-03-14T03:43:38;8.70;99.90
2190;DHT22;1101;51.056;7.262;2023-03-14T03:46:06;8.70;99.90
2190;DHT22;1101;51.056;7.262;2023-03-14T03:48:35;8.60;99.90
2190;DHT22;1101;51.056;7.262;2023-03-14T03:51:04;8.70;99.90
2190;DHT22;1101;51.056;7.262;2023-03-14T03:53:32;8.60;99.90
2190;DHT22;1101;51.056;7.262;2023-03-14T03:56:00;8.60;99.90
2190;DHT22;1101;51.056;7.262;2023-03-14T03:58:28;8.60;99.90
2190;DHT22;1101;51.056;7.262;2023-03-14T04:00:56;8.60;99.90
2190;DHT22;1101;51.056;7.262;2023-03-14T04:03:24;8.60;99.90
2190;DHT22;1101;51.056;7.262;2023-03-14T04:05:58;8.60;99.90
2190;DHT22;1101;51.056;7.262;2023-03-14T04:08:28;8.60;99.90
2190;DHT22;1101;51.056;7.262;2023-03-14T04:10:56;8.60;99.90
2190;DHT22;1101;51.056;7.262;2023-03-14T04:13:25;8.60;99.90
2190;DHT22;1101;51.056;7.262;2023-03-14T04:15:53;8.60;99.90
2190;DHT22;1101;51.056;7.262;2023-03-14T04:18:21;8.60;99.90
2190;DHT22;1101;51.056;7.262;2023-03-14T04:20:51;8.60;99.90
2190;DHT22;1101;51.056;7.262;2023-03-14T04:23:19;8.60;99.90
2190;DHT22;1101;51.056;7.262;2023-03-14T04:25:48;8.60;99.90
2190;DHT22;1101;51.056;7.262;2023-03-14T04:28:18;8.60;99.90
2190;DHT22;1101;51.056;7.262;2023-03-14T04:30:46;8.60;99.90
2190;DHT22;1101;51.056;7.262;2023-03-14T04:33:13;8.60;99.90
2190;DHT22;1101;51.056;7.262;2023-03-14T04:35:44;8.60;99.90
2190;DHT22;1101;51.056;7.262;2023-03-14T04:38:12;8.60;99.90
2190;DHT22;1101;51.056;7.262;2023-03-14T04:40:41;8.60;99.90
2190;DHT22;1101;51.056;7.262;2023-03-14T04:43:11;8.60;99.90
2190;DHT22;1101;51.056;7.262;2023-03-14T04:45:41;8.60;99.90
2190;DHT22;1101;51.056;7.262;2023-03-14T04:48:09;8.60;99.90
2190;DHT22;1101;51.056;7.262;2023-03-14T04:50:37;8.50;99.90
2190;DHT22;1101;51.056;7.262;2023-03-14T04:53:04;8.50;99.90
2190;DHT22;1101;51.056;7.262;2023-03-14T04:55:32;8.50;99.90
2190;DHT22;1101;51.056;7.262;2023-03-14T04:58:01;8.50;99.90
2190;DHT22;1101;51.056;7.262;2023-03-14T05:00:30;8.50;99.90
2190;DHT22;1101;51.056;7.262;2023-03-14T05:02:58;8.50;99.90
2190;DHT22;1101;51.056;7.262;2023-03-14T05:05:26;8.50;99.90
2190;DHT22;1101;51.056;7.262;2023-03-14T05:07:53;8.50;99.90
2190;DHT22;1101;51.056;7.262;2023-03-14T05:10:21;8.50;99.90
2190;DHT22;1101;51.056;7.262;2023-03-14T05:12:49;8.50;99.90
2190;DHT22;1101;51.056;7.262;2023-03-14T05:15:16;8.50;99.90
2190;DHT22;1101;51.056;7.262;2023-03-14T05:17:46;8.50;99.90
2190;DHT22;1101;51.056;7.262;2023-03-14T05:20:15;8.50;99.90
2190;DHT22;1101;51.056;7.262;2023-03-14T05:22:43;8.50;99.90
2190;DHT22;1101;51.056;7.262;2023-03-14T05:25:11;8.50;99.90
2190;DHT22;1101;51.056;7.262;2023-03-14T05:27:38;8.50;99.90
2190;DHT22;1101;51.056;7.262;2023-03-14T05:30:07;8.50;99.90
2190;DHT22;1101;51.056;7.262;2023-03-14T05:32:35;8.50;99.90
2190;DHT22;1101;51.056;7.262;2023-03-14T05:35:05;8.50;99.90
2190;DHT22;1101;51.056;7.262;2023-03-14T05:37:33;8.50;99.90
2190;DHT22;1101;51.056;7.262;2023-03-14T05:40:01;8.50;99.90
2190;DHT22;1101;51.056;7.262;2023-03-14T05:42:29;8.50;99.90
2190;DHT22;1101;51.056;7.262;2023-03-14T05:44:57;8.40;99.90
2190;DHT22;1101;51.056;7.262;2023-03-14T05:47:25;8.40;99.90
2190;DHT22;1101;51.056;7.262;2023-03-14T05:49:52;8.40;99.90
2190;DHT22;1101;51.056;7.262;2023-03-14T05:52:21;8.40;99.90
2190;DHT22;1101;51.056;7.262;2023-03-14T05:54:49;8.40;99.90
2190;DHT22;1101;51.056;7.262;2023-03-14T05:57:17;8.40;99.90
2190;DHT22;1101;51.056;7.262;2023-03-14T05:59:45;8.40;99.90
2190;DHT22;1101;51.056;7.262;2023-03-14T06:02:12;8.40;99.90
2190;DHT22;1101;51.056;7.262;2023-03-14T06:04:40;8.40;99.90
2190;DHT22;1101;51.056;7.262;2023-03-14T06:07:08;8.40;99.90
2190;DHT22;1101;51.056;7.262;2023-03-14T06:09:37;8.40;99.90
2190;DHT22;1101;51.056;7.262;2023-03-14T06:12:06;8.40;99.90
2190;DHT22;1101;51.056;7.262;2023-03-14T06:14:34;8.40;99.90
2190;DHT22;1101;51.056;7.262;2023-03-14T06:17:01;8.40;99.90
2190;DHT22;1101;51.056;7.262;2023-03-14T06:19:29;8.40;99.90
2190;DHT22;1101;51.056;7.262;2023-03-14T06:21:57;8.40;99.90
2190;DHT22;1101;51.056;7.262;2023-03-14T06:24:25;8.40;99.90
2190;DHT22;1101;51.056;7.262;2023-03-14T06:26:54;8.40;99.90
2190;DHT22;1101;51.056;7.262;2023-03-14T06:29:21;8.40;99.90
2190;DHT22;1101;51.056;7.262;2023-03-14T06:31:49;8.40;99.90
2190;DHT22;1101;51.056;7.262;2023-03-14T06:34:17;8.40;99.90
2190;DHT22;1101;51.056;7.262;2023-03-14T06:36:45;8.40;99.90
2190;DHT22;1101;51.056;7.262;2023-03-14T06:39:13;8.40;99.90
2190;DHT22;1101;51.056;7.262;2023-03-14T06:41:40;8.40;99.90
2190;DHT22;1101;51.056;7.262;2023-03-14T06:44:09;8.40;99.90
2190;DHT22;1101;51.056;7.262;2023-03-14T06:46:37;8.40;99.90
2190;DHT22;1101;51.056;7.262;2023-03-14T06:49:05;8.40;99.90
2190;DHT22;1101;51.056;7.262;2023-03-14T06:51:33;8.40;99.90
2190;DHT22;1101;51.056;7.262;2023-03-14T06:54:00;8.50;99.90
2190;DHT22;1101;51.056;7.262;2023-03-14T06:56:28;8.50;99.90
2190;DHT22;1101;51.056;7.262;2023-03-14T06:58:56;8.40;99.90
2190;DHT22;1101;51.056;7.262;2023-03-14T07:01:27;8.50;99.90
2190;DHT22;1101;51.056;7.262;2023-03-14T07:03:56;8.50;99.90
2190;DHT22;1101;51.056;7.262;2023-03-14T07:06:24;8.50;99.90
2190;DHT22;1101;51.056;7.262;2023-03-14T07:08:52;8.50;99.90
2190;DHT22;1101;51.056;7.262;2023-03-14T07:11:20;8.50;99.90
2190;DHT22;1101;51.056;7.262;2023-03-14T07:13:47;8.50;99.90
2190;DHT22;1101;51.056;7.262;2023-03-14T07:16:15;8.50;99.90
2190;DHT22;1101;51.056;7.262;2023-03-14T07:18:45;8.50;99.90
2190;DHT22;1101;51.056;7.262;2023-03-14T07:21:13;8.50;99.90
2190;DHT22;1101;51.056;7.262;2023-03-14T07:23:40;8.50;99.90
2190;DHT22;1101;51.056;7.262;2023-03-14T07:26:08;8.50;99.90
2190;DHT22;1101;51.056;7.262;2023-03-14T07:28:36;8.50;99.90
2190;DHT22;1101;51.056;7.262;2023-03-14T07:31:04;8.60;99.90
2190;DHT22;1101;51.056;7.262;2023-03-14T07:33:32;8.60;99.90
2190;DHT22;1101;51.056;7.262;2023-03-14T07:36:01;8.60;99.90
2190;DHT22;1101;51.056;7.262;2023-03-14T07:38:30;8.60;99.90
2190;DHT22;1101;51.056;7.262;2023-03-14T07:40:58;8.70;99.90
2190;DHT22;1101;51.056;7.262;2023-03-14T07:43:26;8.70;99.90
2190;DHT22;1101;51.056;7.262;2023-03-14T07:45:54;8.70;99.90
2190;DHT22;1101;51.056;7.262;2023-03-14T07:48:25;8.80;99.90
2190;DHT22;1101;51.056;7.262;2023-03-14T07:50:54;8.80;99.90
2190;DHT22;1101;51.056;7.262;2023-03-14T07:53:25;8.90;99.90
2190;DHT22;1101;51.056;7.262;2023-03-14T07:55:53;8.90;99.90
2190;DHT22;1101;51.056;7.262;2023-03-14T07:58:21;8.80;99.90
2190;DHT22;1101;51.056;7.262;2023-03-14T08:00:49;8.80;99.90
2190;DHT22;1101;51.056;7.262;2023-03-14T08:03:17;8.90;99.90
2190;DHT22;1101;51.056;7.262;2023-03-14T08:05:47;8.90;99.90
2190;DHT22;1101;51.056;7.262;2023-03-14T08:08:15;8.90;99.90
2190;DHT22;1101;51.056;7.262;2023-03-14T08:10:45;8.90;99.90
2190;DHT22;1101;51.056;7.262;2023-03-14T08:13:13;8.90;99.90
2190;DHT22;1101;51.056;7.262;2023-03-14T08:15:41;8.90;99.90
2190;DHT22;1101;51.056;7.262;2023-03-14T08:18:09;8.90;99.90
2190;DHT22;1101;51.056;7.262;2023-03-14T08:20:37;8.90;99.90
2190;DHT22;1101;51.056;7.262;2023-03-14T08:23:05;8.90;99.90
2190;DHT22;1101;51.056;7.262;2023-03-14T08:25:32;9.00;99.90
2190;DHT22;1101;51.056;7.262;2023-03-14T08:28:02;9.00;99.90
2190;DHT22;1101;51.056;7.262;2023-03-14T08:30:30;9.00;99.90
2190;DHT22;1101;51.056;7.262;2023-03-14T08:32:58;9.00;99.90
2190;DHT22;1101;51.056;7.262;2023-03-14T08:35:27;9.10;99.90
2190;DHT22;1101;51.056;7.262;2023-03-14T08:37:54;9.10;99.90
2190;DHT22;1101;51.056;7.262;2023-03-14T08:40:23;9.10;99.90
2190;DHT22;1101;51.056;7.262;2023-03-14T08:42:50;9.10;99.90
2190;DHT22;1101;51.056;7.262;2023-03-14T08:45:20;9.10;99.90
2190;DHT22;1101;51.056;7.262;2023-03-14T08:47:48;9.10;99.90
2190;DHT22;1101;51.056;7.262;2023-03-14T08:50:15;9.20;99.90
2190;DHT22;1101;51.056;7.262;2023-03-14T08:52:43;9.20;99.90
2190;DHT22;1101;51.056;7.262;2023-03-14T08:55:11;9.30;99.90
2190;DHT22;1101;51.056;7.262;2023-03-14T08:57:39;9.30;99.90
2190;DHT22;1101;51.056;7.262;2023-03-14T09:00:08;9.40;99.90
2190;DHT22;1101;51.056;7.262;2023-03-14T09:02:40;9.40;99.90
2190;DHT22;1101;51.056;7.262;2023-03-14T09:05:09;9.40;99.90
2190;DHT22;1101;51.056;7.262;2023-03-14T09:07:37;9.40;99.90
2190;DHT22;1101;51.056;7.262;2023-03-14T09:10:06;9.50;99.90
2190;DHT22;1101;51.056;7.262;2023-03-14T09:12:35;9.50;99.90
2190;DHT22;1101;51.056;7.262;2023-03-14T09:15:03;9.50;99.90
2190;DHT22;1101;51.056;7.262;2023-03-14T09:17:31;9.50;99.90
2190;DHT22;1101;51.056;7.262;2023-03-14T09:20:01;9.40;99.90
2190;DHT22;1101;51.056;7.262;2023-03-14T09:22:32;9.50;99.90
2190;DHT22;1101;51.056;7.262;2023-03-14T09:25:02;9.50;99.90
2190;DHT22;1101;51.056;7.262;2023-03-14T09:27:30;9.50;99.90
2190;DHT22;1101;51.056;7.262;2023-03-14T09:29:57;9.50;99.90
2190;DHT22;1101;51.056;7.262;2023-03-14T09:32:25;9.50;99.90
2190;DHT22;1101;51.056;7.262;2023-03-14T09:34:53;9.50;99.90
2190;DHT22;1101;51.056;7.262;2023-03-14T09:37:22;9.50;99.90
2190;DHT22;1101;51.056;7.262;2023-03-14T09:39:50;9.50;99.90
2190;DHT22;1101;51.056;7.262;2023-03-14T09:42:22;9.50;99.90
2190;DHT22;1101;51.056;7.262;2023-03-14T09:44:54;9.50;99.90
2190;DHT22;1101;51.056;7.262;2023-03-14T09:47:23;9.50;99.90
2190;DHT22;1101;51.056;7.262;2023-03-14T09:49:52;9.50;99.90
2190;DHT22;1101;51.056;7.262;2023-03-14T09:52:24;9.60;99.90
2190;DHT22;1101;51.056;7.262;2023-03-14T09:54:57;9.60;99.90
2190;DHT22;1101;51.056;7.262;2023-03-14T09:57:27;9.60;99.90
2190;DHT22;1101;51.056;7.262;2023-03-14T09:59:58;9.60;99.90
2190;DHT22;1101;51.056;7.262;2023-03-14T10:02:34;9.60;99.90
2190;DHT22;1101;51.056;7.262;2023-03-14T10:05:07;9.60;99.90
2190;DHT22;1101;51.056;7.262;2023-03-14T10:07:37;9.60;99.90
2190;DHT22;1101;51.056;7.262;2023-03-14T10:10:10;9.40;99.90
2190;DHT22;1101;51.056;7.262;2023-03-14T10:12:38;9.30;99.90
2190;DHT22;1101;51.056;7.262;2023-03-14T10:15:08;9.10;99.90
2190;DHT22;1101;51.056;7.262;2023-03-14T10:17:41;8.90;99.90
2190;DHT22;1101;51.056;7.262;2023-03-14T10:20:27;8.80;99.90
2190;DHT22;1101;51.056;7.262;2023-03-14T10:23:01;8.70;99.90
2190;DHT22;1101;51.056;7.262;2023-03-14T10:25:31;8.60;99.90
2190;DHT22;1101;51.056;7.262;2023-03-14T10:27:59;8.50;99.90
2190;DHT22;1101;51.056;7.262;2023-03-14T10:30:30;8.50;99.90
2190;DHT22;1101;51.056;7.262;2023-03-14T10:33:08;8.40;99.90
2190;DHT22;1101;51.056;7.262;2023-03-14T10:35:36;8.40;99.90
2190;DHT22;1101;51.056;7.262;2023-03-14T10:38:11;8.30;99.90
2190;DHT22;1101;51.056;7.262;2023-03-14T10:40:42;8.20;99.90
2190;DHT22;1101;51.056;7.262;2023-03-14T10:43:17;8.20;99.90
2190;DHT22;1101;51.056;7.262;2023-03-14T10:45:52;8.10;99.90
2190;DHT22;1101;51.056;7.262;2023-03-14T10:48:30;8.10;99.90
2190;DHT22;1101;51.056;7.262;2023-03-14T10:51:04;8.00;99.90
2190;DHT22;1101;51.056;7.262;2023-03-14T10:53:42;8.00;99.90
2190;DHT22;1101;51.056;7.262;2023-03-14T10:56:12;7.90;99.90
2190;DHT22;1101;51.056;7.262;2023-03-14T10:58:42;7.90;99.90
2190;DHT22;1101;51.056;7.262;2023-03-14T11:01:23;7.90;99.90
2190;DHT22;1101;51.056;7.262;2023-03-14T11:03:57;7.90;99.90
2190;DHT22;1101;51.056;7.262;2023-03-14T11:06:33;7.90;99.90
2190;DHT22;1101;51.056;7.262;2023-03-14T11:09:10;7.80;99.90
2190;DHT22;1101;51.056;7.262;2023-03-14T11:11:41;7.80;99.90
2190;DHT22;1101;51.056;7.262;2023-03-14T11:14:18;7.80;99.90
2190;DHT22;1101;51.056;7.262;2023-03-14T11:16:57;7.70;99.90
2190;DHT22;1101;51.056;7.262;2023-03-14T11:19:42;7.70;99.90
2190;DHT22;1101;51.056;7.262;2023-03-14T11:22:21;7.70;99.90
2190;DHT22;1101;51.056;7.262;2023-03-14T11:25:09;7.70;99.90
2190;DHT22;1101;51.056;7.262;2023-03-14T11:27:44;7.70;99.90
2190;DHT22;1101;51.056;7.262;2023-03-14T11:30:18;7.80;99.90
2190;DHT22;1101;51.056;7.262;2023-03-14T11:32:50;7.80;99.90
2190;DHT22;1101;51.056;7.262;2023-03-14T11:35:25;7.80;99.90
2190;DHT22;1101;51.056;7.262;2023-03-14T11:38:18;7.80;99.90
2190;DHT22;1101;51.056;7.262;2023-03-14T11:40:49;7.80;99.90
2190;DHT22;1101;51.056;7.262;2023-03-14T11:43:23;7.70;99.90
2190;DHT22;1101;51.056;7.262;2023-03-14T11:45:58;7.70;99.90
2190;DHT22;1101;51.056;7.262;2023-03-14T11:48:35;7.60;99.90
2190;DHT22;1101;51.056;7.262;2023-03-14T11:51:08;7.60;99.90
2190;DHT22;1101;51.056;7.262;2023-03-14T11:53:48;7.50;99.90
2190;DHT22;1101;51.056;7.262;2023-03-14T11:56:24;7.50;99.90
2190;DHT22;1101;51.056;7.262;2023-03-14T11:58:57;7.40;99.90
2190;DHT22;1101;51.056;7.262;2023-03-14T12:01:33;7.30;99.90
2190;DHT22;1101;51.056;7.262;2023-03-14T12:04:07;7.20;99.90
2190;DHT22;1101;51.056;7.262;2023-03-14T12:06:42;7.20;99.90
2190;DHT22;1101;51.056;7.262;2023-03-14T12:09:12;7.10;99.90
2190;DHT22;1101;51.056;7.262;2023-03-14T12:11:45;7.10;99.90
2190;DHT22;1101;51.056;7.262;2023-03-14T12:14:20;7.00;99.90
2190;DHT22;1101;51.056;7.262;2023-03-14T12:16:50;7.00;99.90
2190;DHT22;1101;51.056;7.262;2023-03-14T12:19:32;7.00;99.90
2190;DHT22;1101;51.056;7.262;2023-03-14T12:24:55;6.90;99.90
2190;DHT22;1101;51.056;7.262;2023-03-14T12:30:38;6.90;99.90
2190;DHT22;1101;51.056;7.262;2023-03-14T12:33:26;6.90;99.90
2190;DHT22;1101;51.056;7.262;2023-03-14T12:35:58;6.80;99.90
2190;DHT22;1101;51.056;7.262;2023-03-14T12:38:42;6.80;99.90
2190;DHT22;1101;51.056;7.262;2023-03-14T12:41:15;6.80;99.90
2190;DHT22;1101;51.056;7.262;2023-03-14T12:43:46;6.70;99.90
2190;DHT22;1101;51.056;7.262;2023-03-14T12:46:22;6.60;99.90
2190;DHT22;1101;51.056;7.262;2023-03-14T12:48:54;6.60;99.90
2190;DHT22;1101;51.056;7.262;2023-03-14T12:51:29;6.60;99.90
2190;DHT22;1101;51.056;7.262;2023-03-14T12:54:13;6.50;99.90
2190;DHT22;1101;51.056;7.262;2023-03-14T12:57:04;6.50;99.90
2190;DHT22;1101;51.056;7.262;2023-03-14T12:59:36;6.40;99.90
2190;DHT22;1101;51.056;7.262;2023-03-14T13:02:21;6.40;99.90
2190;DHT22;1101;51.056;7.262;2023-03-14T13:04:52;6.30;99.90
2190;DHT22;1101;51.056;7.262;2023-03-14T13:07:36;6.30;99.90
2190;DHT22;1101;51.056;7.262;2023-03-14T13:10:24;6.20;99.90
2190;DHT22;1101;51.056;7.262;2023-03-14T13:12:55;6.20;99.90
2190;DHT22;1101;51.056;7.262;2023-03-14T13:15:28;6.20;99.90
2190;DHT22;1101;51.056;7.262;2023-03-14T13:18:01;6.10;99.90
2190;DHT22;1101;51.056;7.262;2023-03-14T13:20:32;6.20;99.90
2190;DHT22;1101;51.056;7.262;2023-03-14T13:23:01;6.30;99.90
2190;DHT22;1101;51.056;7.262;2023-03-14T13:25:31;6.40;99.90
2190;DHT22;1101;51.056;7.262;2023-03-14T13:28:01;6.40;99.90
2190;DHT22;1101;51.056;7.262;2023-03-14T13:30:39;6.60;99.90
2190;DHT22;1101;51.056;7.262;2023-03-14T13:33:13;6.70;99.90
2190;DHT22;1101;51.056;7.262;2023-03-14T13:35:43;6.70;99.90
2190;DHT22;1101;51.056;7.262;2023-03-14T13:38:17;6.90;99.90
2190;DHT22;1101;51.056;7.262;2023-03-14T13:40:47;7.00;99.90
2190;DHT22;1101;51.056;7.262;2023-03-14T13:43:18;7.10;99.90
2190;DHT22;1101;51.056;7.262;2023-03-14T13:45:53;7.10;99.90
2190;DHT22;1101;51.056;7.262;2023-03-14T13:48:25;7.10;99.90
2190;DHT22;1101;51.056;7.262;2023-03-14T13:50:56;7.10;99.90
2190;DHT22;1101;51.056;7.262;2023-03-14T13:53:25;7.10;99.90
2190;DHT22;1101;51.056;7.262;2023-03-14T13:55:53;7.00;99.90
2190;DHT22;1101;51.056;7.262;2023-03-14T13:58:24;6.90;99.90
2190;DHT22;1101;51.056;7.262;2023-03-14T14:01:06;6.70;99.90
2190;DHT22;1101;51.056;7.262;2023-03-14T14:03:39;6.50;99.90
2190;DHT22;1101;51.056;7.262;2023-03-14T14:06:16;6.50;99.90
2190;DHT22;1101;51.056;7.262;2023-03-14T14:08:47;6.40;99.90
2190;DHT22;1101;51.056;7.262;2023-03-14T14:11:20;6.30;99.90
2190;DHT22;1101;51.056;7.262;2023-03-14T14:13:54;6.20;99.90
2190;DHT22;1101;51.056;7.262;2023-03-14T14:16:24;6.20;99.90
2190;DHT22;1101;51.056;7.262;2023-03-14T14:18:55;6.30;99.90
2190;DHT22;1101;51.056;7.262;2023-03-14T14:21:24;6.20;99.90
2190;DHT22;1101;51.056;7.262;2023-03-14T14:23:53;6.30;99.90
2190;DHT22;1101;51.056;7.262;2023-03-14T14:26:20;6.20;99.90
2190;DHT22;1101;51.056;7.262;2023-03-14T14:28:58;6.20;99.90
2190;DHT22;1101;51.056;7.262;2023-03-14T14:31:28;6.20;99.90
2190;DHT22;1101;51.056;7.262;2023-03-14T14:33:57;6.20;99.90
2190;DHT22;1101;51.056;7.262;2023-03-14T14:36:28;6.20;99.90
2190;DHT22;1101;51.056;7.262;2023-03-14T14:38:59;6.20;99.90
2190;DHT22;1101;51.056;7.262;2023-03-14T14:41:29;6.20;99.90
2190;DHT22;1101;51.056;7.262;2023-03-14T14:43:59;6.20;99.90
2190;DHT22;1101;51.056;7.262;2023-03-14T14:46:30;6.20;99.90
2190;DHT22;1101;51.056;7.262;2023-03-14T14:49:04;6.20;99.90
2190;DHT22;1101;51.056;7.262;2023-03-14T14:51:34;6.20;99.90
2190;DHT22;1101;51.056;7.262;2023-03-14T14:54:12;6.20;99.90
2190;DHT22;1101;51.056;7.262;2023-03-14T14:56:46;6.30;99.90
2190;DHT22;1101;51.056;7.262;2023-03-14T14:59:25;6.30;99.90
2190;DHT22;1101;51.056;7.262;2023-03-14T15:01:58;6.30;99.90
2190;DHT22;1101;51.056;7.262;2023-03-14T15:04:26;6.30;99.90
2190;DHT22;1101;51.056;7.262;2023-03-14T15:06:54;6.30;99.90
2190;DHT22;1101;51.056;7.262;2023-03-14T15:09:22;6.30;99.90
2190;DHT22;1101;51.056;7.262;2023-03-14T15:11:50;6.30;99.90
2190;DHT22;1101;51.056;7.262;2023-03-14T15:14:18;6.30;99.90
2190;DHT22;1101;51.056;7.262;2023-03-14T15:16:45;6.30;99.90
2190;DHT22;1101;51.056;7.262;2023-03-14T15:19:20;6.40;99.90
2190;DHT22;1101;51.056;7.262;2023-03-14T15:21:51;6.40;99.90
2190;DHT22;1101;51.056;7.262;2023-03-14T15:24:19;6.40;99.90
2190;DHT22;1101;51.056;7.262;2023-03-14T15:26:47;6.40;99.90
2190;DHT22;1101;51.056;7.262;2023-03-14T15:29:15;6.40;99.90
2190;DHT22;1101;51.056;7.262;2023-03-14T15:31:43;6.40;99.90
2190;DHT22;1101;51.056;7.262;2023-03-14T15:34:11;6.50;99.90
2190;DHT22;1101;51.056;7.262;2023-03-14T15:36:40;6.40;99.90
2190;DHT22;1101;51.056;7.262;2023-03-14T15:39:10;6.50;99.90
2190;DHT22;1101;51.056;7.262;2023-03-14T15:41:38;6.50;99.90
2190;DHT22;1101;51.056;7.262;2023-03-14T15:44:06;6.50;99.90
2190;DHT22;1101;51.056;7.262;2023-03-14T15:46:34;6.50;99.90
2190;DHT22;1101;51.056;7.262;2023-03-14T15:49:01;6.60;99.90
2190;DHT22;1101;51.056;7.262;2023-03-14T15:51:29;6.60;99.90
2190;DHT22;1101;51.056;7.262;2023-03-14T15:53:58;6.60;99.90
2190;DHT22;1101;51.056;7.262;2023-03-14T15:56:26;6.70;99.90
2190;DHT22;1101;51.056;7.262;2023-03-14T15:58:57;6.70;99.90
2190;DHT22;1101;51.056;7.262;2023-03-14T16:01:25;6.70;99.90
2190;DHT22;1101;51.056;7.262;2023-03-14T16:03:53;6.70;99.90
2190;DHT22;1101;51.056;7.262;2023-03-14T16:06:22;6.60;99.90
2190;DHT22;1101;51.056;7.262;2023-03-14T16:08:50;6.70;99.90
2190;DHT22;1101;51.056;7.262;2023-03-14T16:11:19;6.60;99.90
2190;DHT22;1101;51.056;7.262;2023-03-14T16:13:48;6.60;99.90
2190;DHT22;1101;51.056;7.262;2023-03-14T16:16:17;6.60;99.90
2190;DHT22;1101;51.056;7.262;2023-03-14T16:18:45;6.60;99.90
2190;DHT22;1101;51.056;7.262;2023-03-14T16:25:06;6.50;99.90
2190;DHT22;1101;51.056;7.262;2023-03-14T16:27:35;6.50;99.90
2190;DHT22;1101;51.056;7.262;2023-03-14T16:30:03;6.40;99.90
2190;DHT22;1101;51.056;7.262;2023-03-14T16:32:31;6.40;99.90
2190;DHT22;1101;51.056;7.262;2023-03-14T16:34:59;6.40;99.90
2190;DHT22;1101;51.056;7.262;2023-03-14T16:37:27;6.30;99.90
2190;DHT22;1101;51.056;7.262;2023-03-14T16:39:55;6.30;99.90
2190;DHT22;1101;51.056;7.262;2023-03-14T16:42:39;6.20;99.90
2190;DHT22;1101;51.056;7.262;2023-03-14T16:45:27;6.20;99.90
2190;DHT22;1101;51.056;7.262;2023-03-14T16:47:55;6.20;99.90
2190;DHT22;1101;51.056;7.262;2023-03-14T16:50:23;6.10;99.90